Time;durP1;ratioP1;P1;durP2;ratioP2;P2;SDS_P1;SDS_P2;PMS_P1;PMS_P2;Temp;Humidity;BMP_temperature;BMP_pressure;BME280_temperature;BME280_humidity;BME280_pressure;Samples;Min_cycle;Max_cycle;Signal;HPM_P1;HPM_P2
2022/04/26 03:37:05;;;;;;;;;33.75;30.00;;;;;;;;5053125;28;45303;-68
2022/04/26 03:39:34;;;;;;;;;35.25;29.00;;;;;;;;5053347;28;45455;-69
2022/04/26 03:42:00;;;;;;;;;34.75;31.50;;;;;;;;5053171;28;45422;-67
2022/04/26 03:44:25;;;;;;;;;40.25;32.50;;;;;;;;5041737;28;45458;-69
2022/04/26 03:46:50;;;;;;;;;33.75;32.00;;;;;;;;5053215;28;45463;-68
2022/04/26 03:49:15;;;;;;;;;33.50;30.75;;;;;;;;5053081;28;45467;-69
2022/04/26 03:51:41;;;;;;;;;37.25;33.75;;;;;;;;5052866;28;45390;-69
2022/04/26 03:54:06;;;;;;;;;34.25;31.00;;;;;;;;5053258;28;45340;-68
2022/04/26 03:56:31;;;;;;;;;33.25;32.00;;;;;;;;5054692;28;46497;-69
2022/04/26 03:58:57;;;;;;;;;39.75;30.00;;;;;;;;5052590;28;45214;-68
2022/04/26 04:01:22;;;;;;;;;41.25;34.75;;;;;;;;5038924;28;45729;-67
2022/04/26 04:03:47;;;;;;;;;36.25;31.25;;;;;;;;5052892;28;45346;-68
2022/04/26 04:06:13;;;;;;;;;34.00;31.00;;;;;;;;5052784;28;46815;-68
2022/04/26 04:08:38;;;;;;;;;42.25;34.75;;;;;;;;5053778;28;45511;-69
2022/04/26 04:11:04;;;;;;;;;45.25;37.00;;;;;;;;5052802;28;45520;-68
2022/04/26 04:13:29;;;;;;;;;39.50;34.75;;;;;;;;5052341;28;45567;-68
2022/04/26 04:15:54;;;;;;;;;48.75;36.50;;;;;;;;5052416;28;46001;-68
2022/04/26 04:21:03;;;;;;;;;41.50;36.00;;;;;;;;5036947;28;45356;-69
2022/04/26 04:23:28;;;;;;;;;43.00;36.75;;;;;;;;5040817;28;45674;-69
2022/04/26 04:25:54;;;;;;;;;46.25;38.50;;;;;;;;5051712;28;45534;-68
2022/04/26 04:28:19;;;;;;;;;47.00;37.75;;;;;;;;5052233;28;45466;-69
2022/04/26 04:30:44;;;;;;;;;48.50;40.00;;;;;;;;5051683;28;45441;-69
2022/04/26 04:33:09;;;;;;;;;43.25;36.75;;;;;;;;5051979;28;45281;-69
2022/04/26 04:35:35;;;;;;;;;37.00;33.25;;;;;;;;5053793;28;45943;-69
2022/04/26 04:38:00;;;;;;;;;39.50;33.25;;;;;;;;5052173;28;45497;-68
2022/04/26 04:40:25;;;;;;;;;43.00;37.25;;;;;;;;5051612;28;45297;-69
2022/04/26 04:42:50;;;;;;;;;45.00;35.25;;;;;;;;5052189;28;45461;-69
2022/04/26 04:45:16;;;;;;;;;45.25;36.00;;;;;;;;5051983;28;45460;-69
2022/04/26 04:47:41;;;;;;;;;48.50;37.50;;;;;;;;5053130;28;45396;-69
2022/04/26 04:50:06;;;;;;;;;39.75;32.50;;;;;;;;5053199;28;45346;-68
2022/04/26 04:52:31;;;;;;;;;45.00;35.25;;;;;;;;5051963;28;45489;-69
2022/04/26 04:54:57;;;;;;;;;52.00;41.50;;;;;;;;5051367;28;46234;-69
2022/04/26 04:57:22;;;;;;;;;50.00;40.50;;;;;;;;5051918;28;45368;-68
2022/04/26 04:59:48;;;;;;;;;49.25;39.00;;;;;;;;5051887;28;45253;-68
2022/04/26 05:02:13;;;;;;;;;50.25;41.25;;;;;;;;5051625;28;45343;-69
2022/04/26 05:04:39;;;;;;;;;44.00;34.50;;;;;;;;5053511;28;46157;-68
2022/04/26 05:07:04;;;;;;;;;37.00;33.00;;;;;;;;5054766;28;45611;-69
2022/04/26 05:09:30;;;;;;;;;45.50;36.75;;;;;;;;5054722;28;45572;-69
2022/04/26 05:11:55;;;;;;;;;49.75;41.50;;;;;;;;5054791;28;45294;-69
2022/04/26 05:14:20;;;;;;;;;49.00;38.25;;;;;;;;5056008;28;45331;-69
2022/04/26 05:16:45;;;;;;;;;53.75;42.50;;;;;;;;5054369;28;47240;-69
2022/04/26 05:19:10;;;;;;;;;44.00;36.75;;;;;;;;5054025;28;45592;-68
2022/04/26 05:21:36;;;;;;;;;48.00;39.75;;;;;;;;5054621;28;45498;-68
2022/04/26 05:26:45;;;;;;;;;49.00;38.50;;;;;;;;5052737;28;45542;-69
2022/04/26 05:29:10;;;;;;;;;49.25;39.25;;;;;;;;5055810;28;45423;-70
2022/04/26 05:31:35;;;;;;;;;50.25;40.75;;;;;;;;5054035;28;45395;-68
2022/04/26 05:34:00;;;;;;;;;54.25;43.50;;;;;;;;5053966;28;46098;-69
2022/04/26 05:36:25;;;;;;;;;50.25;40.50;;;;;;;;5053916;28;45447;-70
2022/04/26 05:38:51;;;;;;;;;54.00;43.00;;;;;;;;5054466;28;45316;-69
2022/04/26 05:41:16;;;;;;;;;52.00;42.00;;;;;;;;5042131;28;45582;-69
2022/04/26 05:43:41;;;;;;;;;54.75;41.00;;;;;;;;5054098;28;46312;-69
2022/04/26 05:46:11;;;;;;;;;52.25;40.00;;;;;;;;5053876;28;45371;-69
2022/04/26 05:48:36;;;;;;;;;51.50;43.75;;;;;;;;5053226;28;45451;-70
2022/04/26 05:51:01;;;;;;;;;56.00;43.75;;;;;;;;5035301;28;45461;-69
2022/04/26 05:53:26;;;;;;;;;60.25;43.50;;;;;;;;5055613;28;45511;-69
2022/04/26 05:55:51;;;;;;;;;56.75;43.25;;;;;;;;5053688;28;45259;-67
2022/04/26 05:58:17;;;;;;;;;58.75;46.75;;;;;;;;5040201;28;45443;-66
2022/04/26 06:00:42;;;;;;;;;55.75;42.25;;;;;;;;5053566;28;45379;-67
2022/04/26 06:03:07;;;;;;;;;51.25;42.25;;;;;;;;5053451;28;45387;-67
2022/04/26 06:05:32;;;;;;;;;52.25;41.75;;;;;;;;5055469;28;45400;-67
2022/04/26 06:07:59;;;;;;;;;57.25;45.25;;;;;;;;5053648;28;45355;-67
2022/04/26 06:10:24;;;;;;;;;57.50;45.00;;;;;;;;5053229;28;45500;-67
2022/04/26 06:12:49;;;;;;;;;59.00;46.00;;;;;;;;5053121;28;45415;-70
2022/04/26 06:15:17;;;;;;;;;54.00;44.00;;;;;;;;5051456;28;45309;-68
2022/04/26 06:17:42;;;;;;;;;53.50;43.25;;;;;;;;5051880;28;45562;-69
2022/04/26 06:20:08;;;;;;;;;64.25;46.75;;;;;;;;5064223;27;45449;-70
2022/04/26 06:22:33;;;;;;;;;61.00;47.75;;;;;;;;5044226;28;46253;-69
2022/04/26 06:24:58;;;;;;;;;56.75;46.00;;;;;;;;5053281;28;45631;-68
2022/04/26 06:27:23;;;;;;;;;60.25;47.00;;;;;;;;5052671;28;45528;-69
2022/04/26 06:29:48;;;;;;;;;62.25;47.75;;;;;;;;5053252;28;45338;-70
2022/04/26 06:32:14;;;;;;;;;60.75;48.25;;;;;;;;5054772;28;45981;-70
2022/04/26 06:34:39;;;;;;;;;61.00;46.75;;;;;;;;5051764;28;45316;-68
2022/04/26 06:37:04;;;;;;;;;58.75;46.50;;;;;;;;5052690;28;45378;-69
2022/04/26 06:39:29;;;;;;;;;60.50;47.50;;;;;;;;5052763;28;45293;-70
2022/04/26 06:41:54;;;;;;;;;58.75;46.25;;;;;;;;5052398;28;46959;-70
2022/04/26 06:44:20;;;;;;;;;61.00;47.25;;;;;;;;5055042;28;45458;-69
2022/04/26 06:46:45;;;;;;;;;61.00;49.00;;;;;;;;5052950;28;45379;-69
2022/04/26 06:49:10;;;;;;;;;65.25;49.00;;;;;;;;5037961;28;45347;-70
2022/04/26 06:51:40;;;;;;;;;65.25;49.75;;;;;;;;5052306;28;46450;-70
2022/04/26 06:54:06;;;;;;;;;61.00;46.25;;;;;;;;5052928;28;45246;-69
2022/04/26 06:56:31;;;;;;;;;64.75;48.50;;;;;;;;5054855;28;45538;-69
2022/04/26 06:58:56;;;;;;;;;66.25;51.00;;;;;;;;5053382;28;45452;-69
2022/04/26 07:01:22;;;;;;;;;60.50;47.50;;;;;;;;5043447;28;47428;-69
2022/04/26 07:03:47;;;;;;;;;62.50;49.00;;;;;;;;5051414;28;45396;-69
2022/04/26 07:06:12;;;;;;;;;63.33;50.33;;;;;;;;5052287;28;45798;-70
2022/04/26 07:08:37;;;;;;;;;67.25;51.00;;;;;;;;5061165;28;45438;-70
2022/04/26 07:11:03;;;;;;;;;64.00;50.25;;;;;;;;5061129;28;47021;-70
2022/04/26 07:13:28;;;;;;;;;61.75;50.00;;;;;;;;5051822;28;45415;-70
2022/04/26 07:15:53;;;;;;;;;63.75;51.25;;;;;;;;5051988;28;45457;-69
2022/04/26 07:18:18;;;;;;;;;60.25;47.75;;;;;;;;5052047;28;45452;-70
2022/04/26 07:20:44;;;;;;;;;64.25;49.00;;;;;;;;5053000;28;45573;-68
2022/04/26 07:23:09;;;;;;;;;62.50;48.75;;;;;;;;5053309;28;45445;-70
2022/04/26 07:25:35;;;;;;;;;64.00;49.75;;;;;;;;5052246;28;45428;-70
2022/04/26 07:28:00;;;;;;;;;60.50;48.00;;;;;;;;5051257;28;45515;-71
2022/04/26 07:30:34;;;;;;;;;64.50;50.25;;;;;;;;5046329;28;45953;-68
2022/04/26 07:35:43;;;;;;;;;63.50;48.50;;;;;;;;5049828;28;45288;-69
2022/04/26 07:38:08;;;;;;;;;59.75;47.75;;;;;;;;5051044;28;48602;-69
2022/04/26 07:40:33;;;;;;;;;60.00;47.50;;;;;;;;5041772;28;46459;-70
2022/04/26 07:42:59;;;;;;;;;59.25;46.50;;;;;;;;5043763;28;45423;-69
2022/04/26 07:45:25;;;;;;;;;59.75;47.25;;;;;;;;5036251;28;45322;-68
2022/04/26 07:47:50;;;;;;;;;64.50;50.25;;;;;;;;5049952;28;45328;-68
2022/04/26 07:50:15;;;;;;;;;59.25;46.75;;;;;;;;5037397;28;47027;-70
2022/04/26 07:52:41;;;;;;;;;56.75;43.00;;;;;;;;5048006;28;45535;-69
2022/04/26 07:55:06;;;;;;;;;60.50;46.75;;;;;;;;5048630;28;45359;-69
2022/04/26 07:57:31;;;;;;;;;62.25;46.75;;;;;;;;5048784;28;45503;-68
2022/04/26 07:59:58;;;;;;;;;61.00;46.50;;;;;;;;5031867;28;47084;-68
2022/04/26 08:02:24;;;;;;;;;62.50;48.50;;;;;;;;5054766;28;45354;-69
2022/04/26 08:04:49;;;;;;;;;57.50;45.75;;;;;;;;5050090;28;45428;-68
2022/04/26 08:07:15;;;;;;;;;63.75;46.50;;;;;;;;5044215;28;45510;-69
2022/04/26 08:09:40;;;;;;;;;62.25;47.50;;;;;;;;5046824;28;46286;-68
2022/04/26 08:12:05;;;;;;;;;54.75;44.25;;;;;;;;5057194;28;45481;-69
2022/04/26 08:14:30;;;;;;;;;55.25;44.25;;;;;;;;5042731;28;45748;-70
2022/04/26 08:16:56;;;;;;;;;52.25;42.75;;;;;;;;5038162;28;45277;-68
2022/04/26 08:19:23;;;;;;;;;58.25;45.25;;;;;;;;5044018;28;46556;-69
2022/04/26 08:21:49;;;;;;;;;55.25;44.75;;;;;;;;5052593;28;45533;-68
2022/04/26 08:29:42;;;;;;;;;60.50;48.50;;;;;;;;5049269;28;45576;-68
2022/04/26 08:32:07;;;;;;;;;51.50;43.00;;;;;;;;5048551;28;45289;-67
2022/04/26 08:34:32;;;;;;;;;60.75;46.50;;;;;;;;5041276;28;45375;-70
2022/04/26 08:36:58;;;;;;;;;54.00;43.00;;;;;;;;5037343;28;45570;-67
2022/04/26 08:39:23;;;;;;;;;57.75;46.50;;;;;;;;5051727;28;46036;-68
2022/04/26 08:41:49;;;;;;;;;52.50;43.75;;;;;;;;5043571;28;45493;-69
2022/04/26 08:44:14;;;;;;;;;57.75;46.75;;;;;;;;5040939;28;45495;-69
2022/04/26 08:52:08;;;;;;;;;58.00;42.50;;;;;;;;5047966;28;45476;-69
2022/04/26 08:54:33;;;;;;;;;58.50;44.25;;;;;;;;5020594;28;45525;-67
2022/04/26 08:56:59;;;;;;;;;57.00;45.75;;;;;;;;5053205;28;45360;-69
2022/04/26 08:59:25;;;;;;;;;55.50;44.75;;;;;;;;5040121;28;45681;-68
2022/04/26 09:01:50;;;;;;;;;54.00;42.50;;;;;;;;5052113;28;45371;-69
2022/04/26 09:04:17;;;;;;;;;57.75;46.50;;;;;;;;5049092;28;45489;-68
2022/04/26 09:06:45;;;;;;;;;52.50;44.00;;;;;;;;5037679;28;45381;-69
2022/04/26 09:09:24;;;;;;;;;59.00;46.50;;;;;;;;5036827;28;45531;-68
2022/04/26 09:11:49;;;;;;;;;50.50;39.00;;;;;;;;5054243;28;45460;-68
2022/04/26 09:14:28;;;;;;;;;59.00;48.00;;;;;;;;5041689;28;45621;-69
2022/04/26 09:17:03;;;;;;;;;51.50;41.50;;;;;;;;5053167;28;46150;-69
2022/04/26 09:19:42;;;;;;;;;53.50;42.50;;;;;;;;5053780;28;45614;-69
2022/04/26 09:22:14;;;;;;;;;56.75;45.00;;;;;;;;5050397;28;45407;-69
2022/04/26 09:24:58;;;;;;;;;56.50;44.25;;;;;;;;5042008;28;45462;-68
2022/04/26 09:27:24;;;;;;;;;50.25;42.25;;;;;;;;5051437;28;45568;-67
2022/04/26 09:29:49;;;;;;;;;60.25;48.25;;;;;;;;5051987;28;46741;-68
2022/04/26 09:32:14;;;;;;;;;52.00;42.25;;;;;;;;5053081;28;46188;-67
2022/04/26 09:34:40;;;;;;;;;54.75;41.25;;;;;;;;5043265;28;45348;-69
2022/04/26 09:37:16;;;;;;;;;59.50;46.50;;;;;;;;5040692;28;45484;-68
2022/04/26 09:40:02;;;;;;;;;56.75;46.00;;;;;;;;5041611;28;47482;-69
2022/04/26 09:42:32;;;;;;;;;60.25;47.25;;;;;;;;5037912;28;45562;-69
2022/04/26 09:45:08;;;;;;;;;52.00;41.75;;;;;;;;5036370;28;45407;-69
2022/04/26 09:47:37;;;;;;;;;62.50;48.00;;;;;;;;5055549;28;45439;-68
2022/04/26 09:50:06;;;;;;;;;54.25;42.50;;;;;;;;5041260;28;45405;-68
2022/04/26 09:52:31;;;;;;;;;65.75;47.00;;;;;;;;5050257;28;45546;-68
2022/04/26 09:54:57;;;;;;;;;65.00;48.25;;;;;;;;5048854;28;45471;-68
2022/04/26 09:57:23;;;;;;;;;60.50;46.25;;;;;;;;5049594;28;45666;-68
2022/04/26 09:59:49;;;;;;;;;56.25;45.50;;;;;;;;5020833;28;47613;-69
2022/04/26 10:02:15;;;;;;;;;66.00;51.75;;;;;;;;5048304;28;45463;-69
2022/04/26 10:04:46;;;;;;;;;60.00;48.75;;;;;;;;5044248;28;45440;-69
2022/04/26 10:07:12;;;;;;;;;58.75;46.75;;;;;;;;5022218;28;45534;-69
2022/04/26 10:09:39;;;;;;;;;67.25;52.25;;;;;;;;5050248;28;46921;-68
2022/04/26 10:12:04;;;;;;;;;55.75;46.50;;;;;;;;5049889;28;45614;-68
2022/04/26 10:14:30;;;;;;;;;61.50;48.25;;;;;;;;5050063;28;45451;-68
2022/04/26 10:16:56;;;;;;;;;55.75;44.50;;;;;;;;5040242;28;45596;-68
2022/04/26 10:19:34;;;;;;;;;57.75;44.50;;;;;;;;5048140;28;47195;-70
2022/04/26 10:21:59;;;;;;;;;58.50;44.50;;;;;;;;5049819;27;45527;-69
2022/04/26 10:24:25;;;;;;;;;44.50;39.00;;;;;;;;5036475;28;45457;-70
2022/04/26 10:26:51;;;;;;;;;62.25;46.25;;;;;;;;5050743;28;45304;-70
2022/04/26 10:29:18;;;;;;;;;48.75;40.75;;;;;;;;5051743;28;46100;-69
2022/04/26 10:31:57;;;;;;;;;55.50;43.00;;;;;;;;5050386;28;45509;-69
2022/04/26 10:34:26;;;;;;;;;59.75;46.25;;;;;;;;5047872;28;45302;-70
2022/04/26 10:36:52;;;;;;;;;55.00;45.00;;;;;;;;5050811;28;45367;-70
2022/04/26 10:39:32;;;;;;;;;59.50;46.75;;;;;;;;5050414;28;46053;-70
2022/04/26 10:41:58;;;;;;;;;55.00;42.00;;;;;;;;5035583;28;45434;-69
2022/04/26 10:44:26;;;;;;;;;57.00;45.25;;;;;;;;5050334;28;45651;-68
2022/04/26 10:46:55;;;;;;;;;51.75;41.00;;;;;;;;5056342;28;45392;-70
2022/04/26 10:49:22;;;;;;;;;61.50;45.50;;;;;;;;5061565;28;47162;-69
2022/04/26 10:51:47;;;;;;;;;57.25;44.25;;;;;;;;5048601;28;45376;-69
2022/04/26 10:54:13;;;;;;;;;51.00;41.00;;;;;;;;5038871;28;45519;-68
2022/04/26 10:56:38;;;;;;;;;59.25;45.50;;;;;;;;5052975;28;45406;-69
2022/04/26 10:59:13;;;;;;;;;55.75;41.50;;;;;;;;5047948;28;45413;-69
2022/04/26 11:01:38;;;;;;;;;54.75;43.50;;;;;;;;5040463;28;45388;-69
2022/04/26 11:04:05;;;;;;;;;54.50;44.50;;;;;;;;5039635;28;45486;-69
2022/04/26 11:06:41;;;;;;;;;58.50;42.75;;;;;;;;5046554;28;45465;-69
2022/04/26 11:09:10;;;;;;;;;51.25;41.00;;;;;;;;5036743;28;46301;-69
2022/04/26 11:11:52;;;;;;;;;51.50;40.50;;;;;;;;5050248;28;45245;-69
2022/04/26 11:14:17;;;;;;;;;48.00;40.25;;;;;;;;5039010;28;45525;-69
2022/04/26 11:16:59;;;;;;;;;55.75;41.50;;;;;;;;5046405;28;45494;-68
2022/04/26 11:19:31;;;;;;;;;55.00;42.75;;;;;;;;5047831;28;47125;-69
2022/04/26 11:21:57;;;;;;;;;50.50;41.00;;;;;;;;5047447;28;45306;-68
2022/04/26 11:29:51;;;;;;;;;46.00;39.50;;;;;;;;5053153;28;45905;-68
2022/04/26 11:32:34;;;;;;;;;39.00;36.25;;;;;;;;5053922;28;45493;-68
2022/04/26 11:35:00;;;;;;;;;46.00;36.75;;;;;;;;5050546;28;45519;-69
2022/04/26 11:37:25;;;;;;;;;54.00;40.50;;;;;;;;5051662;28;45279;-69
2022/04/26 11:39:50;;;;;;;;;38.00;34.50;;;;;;;;5050823;28;46178;-68
2022/04/26 11:42:16;;;;;;;;;41.50;36.00;;;;;;;;5051959;28;45349;-68
2022/04/26 11:44:59;;;;;;;;;43.00;36.75;;;;;;;;5053139;28;45651;-69
2022/04/26 11:47:38;;;;;;;;;44.00;34.75;;;;;;;;5054539;28;45444;-69
2022/04/26 11:50:13;;;;;;;;;40.50;34.75;;;;;;;;5053094;28;46396;-69
2022/04/26 11:52:39;;;;;;;;;44.00;37.50;;;;;;;;5050821;28;45562;-70
2022/04/26 11:55:05;;;;;;;;;46.25;37.25;;;;;;;;5049856;28;45434;-68
2022/04/26 11:57:31;;;;;;;;;42.00;35.75;;;;;;;;5051033;28;45468;-69
2022/04/26 11:59:57;;;;;;;;;44.75;35.50;;;;;;;;5051542;28;45368;-69
2022/04/26 12:02:22;;;;;;;;;38.75;34.75;;;;;;;;5053600;28;45376;-69
2022/04/26 12:04:48;;;;;;;;;44.00;36.50;;;;;;;;5051633;28;45293;-68
2022/04/26 12:07:14;;;;;;;;;41.50;36.25;;;;;;;;5050058;28;45463;-69
2022/04/26 12:09:41;;;;;;;;;34.50;33.25;;;;;;;;5049573;28;47098;-68
2022/04/26 12:12:10;;;;;;;;;42.50;35.25;;;;;;;;5051190;28;45276;-69
2022/04/26 12:14:37;;;;;;;;;43.25;36.25;;;;;;;;5056894;28;45435;-69
2022/04/26 12:17:08;;;;;;;;;43.25;35.00;;;;;;;;5054607;28;45428;-69
2022/04/26 12:19:34;;;;;;;;;41.50;35.75;;;;;;;;5054050;28;45682;-69
2022/04/26 12:21:59;;;;;;;;;35.75;31.25;;;;;;;;5055078;28;45699;-69
2022/04/26 12:24:27;;;;;;;;;32.25;29.75;;;;;;;;5054767;28;45370;-70
2022/04/26 12:26:53;;;;;;;;;39.00;31.25;;;;;;;;5055143;28;45380;-69
2022/04/26 12:29:19;;;;;;;;;36.75;32.00;;;;;;;;5056831;28;46090;-70
2022/04/26 12:31:46;;;;;;;;;36.00;33.00;;;;;;;;5054115;28;45500;-70
2022/04/26 12:34:15;;;;;;;;;34.75;31.50;;;;;;;;5050967;28;45296;-69
2022/04/26 12:36:51;;;;;;;;;35.00;33.75;;;;;;;;5054865;28;45579;-69
2022/04/26 12:39:16;;;;;;;;;29.75;29.00;;;;;;;;5055300;28;47046;-69
2022/04/26 12:41:49;;;;;;;;;32.75;31.25;;;;;;;;5055157;28;45538;-70
2022/04/26 12:44:14;;;;;;;;;33.25;28.00;;;;;;;;5055914;28;45682;-70
2022/04/26 12:50:28;;;;;;;;;28.25;25.00;;;;;;;;5054102;28;45572;-69
2022/04/26 12:52:38;;;;;;;;;25.25;22.50;;;;;;;;5054305;28;45343;-69
2022/04/26 12:55:03;;;;;;;;;28.75;26.75;;;;;;;;5053701;28;45530;-69
2022/04/26 12:57:29;;;;;;;;;26.25;26.00;;;;;;;;5054573;28;45297;-69
2022/04/26 12:59:54;;;;;;;;;26.50;26.25;;;;;;;;5054782;28;45338;-69
2022/04/26 13:02:19;;;;;;;;;25.00;21.75;;;;;;;;5055706;28;45499;-70
2022/04/26 13:04:44;;;;;;;;;32.25;28.25;;;;;;;;5053913;28;45388;-70
2022/04/26 13:07:09;;;;;;;;;26.25;25.25;;;;;;;;5053013;28;45364;-69
2022/04/26 13:09:35;;;;;;;;;23.75;23.00;;;;;;;;5053356;28;47098;-69
2022/04/26 13:12:00;;;;;;;;;34.75;29.50;;;;;;;;5053444;28;45578;-68
2022/04/26 13:14:27;;;;;;;;;23.00;20.75;;;;;;;;5055249;28;45394;-68
2022/04/26 13:16:52;;;;;;;;;24.75;22.00;;;;;;;;5053164;28;45597;-69
2022/04/26 13:19:17;;;;;;;;;27.75;25.75;;;;;;;;5053862;28;46991;-69
2022/04/26 13:21:43;;;;;;;;;26.50;24.00;;;;;;;;5053801;28;45724;-69
2022/04/26 13:24:08;;;;;;;;;25.00;24.00;;;;;;;;5053582;28;45355;-68
2022/04/26 13:26:35;;;;;;;;;25.00;23.75;;;;;;;;5055170;28;45324;-70
2022/04/26 13:29:00;;;;;;;;;21.00;21.00;;;;;;;;5052234;28;46250;-70
2022/04/26 13:31:26;;;;;;;;;25.50;23.75;;;;;;;;5052981;28;45407;-70
2022/04/26 13:33:51;;;;;;;;;37.75;34.25;;;;;;;;5053954;28;45432;-70
2022/04/26 13:36:17;;;;;;;;;30.00;25.25;;;;;;;;5052446;28;45230;-70
2022/04/26 13:38:42;;;;;;;;;26.00;25.00;;;;;;;;5054744;28;46003;-70
2022/04/26 13:41:07;;;;;;;;;27.50;25.50;;;;;;;;5053694;28;45283;-70
2022/04/26 13:43:33;;;;;;;;;20.25;20.25;;;;;;;;5053794;28;45328;-70
2022/04/26 13:45:58;;;;;;;;;22.50;22.25;;;;;;;;5053122;28;45423;-70
2022/04/26 13:48:23;;;;;;;;;28.50;26.00;;;;;;;;5035066;28;47161;-70
2022/04/26 13:50:48;;;;;;;;;23.75;22.00;;;;;;;;5053182;28;45552;-70
2022/04/26 13:53:13;;;;;;;;;21.50;21.50;;;;;;;;5055525;28;45352;-70
2022/04/26 13:55:39;;;;;;;;;28.75;26.25;;;;;;;;5053181;28;45478;-70
2022/04/26 13:58:08;;;;;;;;;23.50;21.75;;;;;;;;5053143;28;45480;-69
2022/04/26 14:00:35;;;;;;;;;26.00;21.00;;;;;;;;5052833;28;45481;-70
2022/04/26 14:03:00;;;;;;;;;22.50;21.00;;;;;;;;5053233;28;45403;-71
2022/04/26 14:05:27;;;;;;;;;17.25;17.25;;;;;;;;5053810;28;45506;-71
2022/04/26 14:07:52;;;;;;;;;22.75;21.25;;;;;;;;5052549;28;45641;-70
2022/04/26 14:10:18;;;;;;;;;25.25;23.25;;;;;;;;5053026;28;45426;-70
2022/04/26 14:12:43;;;;;;;;;30.25;25.75;;;;;;;;5053279;28;45543;-70
2022/04/26 14:23:20;;;;;;;;;22.00;22.00;;;;;;;;5054597;28;45430;-71
2022/04/26 14:25:46;;;;;;;;;23.25;22.75;;;;;;;;5052129;28;45399;-70
2022/04/26 14:28:11;;;;;;;;;30.25;25.25;;;;;;;;5054098;28;46488;-69
2022/04/26 14:30:36;;;;;;;;;20.75;17.75;;;;;;;;5036326;28;45788;-69
2022/04/26 14:33:02;;;;;;;;;27.25;23.50;;;;;;;;5058560;27;45344;-72
2022/04/26 14:35:32;;;;;;;;;24.50;22.75;;;;;;;;5054249;28;45498;-72
2022/04/26 14:37:58;;;;;;;;;22.00;19.00;;;;;;;;5048754;28;45485;-72
2022/04/26 14:40:23;;;;;;;;;18.25;16.50;;;;;;;;5048325;28;45400;-72
2022/04/26 14:42:48;;;;;;;;;23.25;20.50;;;;;;;;5063175;28;45482;-71
2022/04/26 14:45:14;;;;;;;;;15.75;14.50;;;;;;;;5052601;28;45443;-72
2022/04/26 14:47:40;;;;;;;;;18.25;17.25;;;;;;;;5065093;28;45926;-72
2022/04/26 14:50:09;;;;;;;;;19.75;16.00;;;;;;;;5053534;28;45412;-72
2022/04/26 14:52:36;;;;;;;;;16.50;14.00;;;;;;;;5053025;28;45518;-71
2022/04/26 14:55:04;;;;;;;;;15.50;14.50;;;;;;;;5052410;28;45514;-71
2022/04/26 14:57:29;;;;;;;;;17.50;16.25;;;;;;;;5052747;28;46982;-71
2022/04/26 14:59:54;;;;;;;;;15.75;13.50;;;;;;;;5052623;28;45254;-71
2022/04/26 15:02:19;;;;;;;;;14.00;13.00;;;;;;;;5054508;28;45344;-71
2022/04/26 15:04:45;;;;;;;;;13.00;13.00;;;;;;;;5052478;28;45494;-71
2022/04/26 15:07:11;;;;;;;;;13.00;13.00;;;;;;;;5052027;28;47180;-72
2022/04/26 15:09:52;;;;;;;;;11.50;10.25;;;;;;;;5052783;28;45296;-72
2022/04/26 15:17:48;;;;;;;;;16.75;14.00;;;;;;;;5049562;28;45465;-71
2022/04/26 15:20:14;;;;;;;;;12.00;12.00;;;;;;;;5053819;28;45498;-71
2022/04/26 15:22:39;;;;;;;;;12.00;12.00;;;;;;;;5052004;28;45378;-72
2022/04/26 15:25:06;;;;;;;;;14.75;12.25;;;;;;;;5051852;28;45420;-72
2022/04/26 15:27:32;;;;;;;;;14.25;14.00;;;;;;;;5052121;28;46860;-72
2022/04/26 15:29:57;;;;;;;;;16.25;12.25;;;;;;;;5052765;28;45442;-72
2022/04/26 15:32:25;;;;;;;;;12.25;12.25;;;;;;;;5052723;28;45356;-72
2022/04/26 15:34:50;;;;;;;;;12.50;12.50;;;;;;;;5051673;28;45333;-72
2022/04/26 15:37:15;;;;;;;;;12.75;12.75;;;;;;;;5051447;28;46950;-71
2022/04/26 15:39:42;;;;;;;;;10.25;10.25;;;;;;;;5051579;28;45442;-72
2022/04/26 15:42:07;;;;;;;;;14.75;13.25;;;;;;;;5051882;28;45439;-71
2022/04/26 15:44:33;;;;;;;;;13.50;13.50;;;;;;;;5053816;28;45351;-71
2022/04/26 15:46:58;;;;;;;;;15.75;15.00;;;;;;;;5050691;28;46812;-71
2022/04/26 15:49:27;;;;;;;;;17.50;14.75;;;;;;;;5051383;28;45467;-71
2022/04/26 15:51:55;;;;;;;;;20.00;18.00;;;;;;;;5051840;28;45454;-72
2022/04/26 15:54:21;;;;;;;;;11.50;9.75;;;;;;;;5051754;28;45526;-71
2022/04/26 15:56:46;;;;;;;;;12.50;11.50;;;;;;;;5051154;28;45425;-71
2022/04/26 15:59:12;;;;;;;;;11.25;11.25;;;;;;;;5052217;28;45405;-71
2022/04/26 16:01:39;;;;;;;;;14.00;14.00;;;;;;;;5050927;28;45427;-71
2022/04/26 16:04:05;;;;;;;;;16.00;13.50;;;;;;;;5050975;28;45441;-73
2022/04/26 16:06:30;;;;;;;;;12.00;11.00;;;;;;;;5050905;28;45644;-71
2022/04/26 16:20:28;;;;;;;;;15.25;12.75;;;;;;;;5051025;28;45277;-72
2022/04/26 16:22:36;;;;;;;;;15.25;14.25;;;;;;;;5059056;28;45315;-72
2022/04/26 16:25:02;;;;;;;;;11.75;11.75;;;;;;;;5062270;28;45482;-71
2022/04/26 16:27:27;;;;;;;;;11.50;11.50;;;;;;;;5051824;28;45962;-71
2022/04/26 16:29:52;;;;;;;;;22.00;18.50;;;;;;;;5049914;28;45432;-71
2022/04/26 16:32:17;;;;;;;;;18.50;17.00;;;;;;;;5052595;28;45348;-71
2022/04/26 16:34:43;;;;;;;;;14.75;14.75;;;;;;;;5050106;28;45643;-71
2022/04/26 16:37:08;;;;;;;;;14.50;13.50;;;;;;;;5050420;28;46030;-68
2022/04/26 16:39:33;;;;;;;;;15.75;14.75;;;;;;;;5051375;28;45499;-71
2022/04/26 16:41:59;;;;;;;;;17.75;15.50;;;;;;;;5051291;28;45293;-69
2022/04/26 16:44:24;;;;;;;;;20.25;19.50;;;;;;;;5052638;28;45348;-69
2022/04/26 16:46:49;;;;;;;;;22.25;20.50;;;;;;;;5050654;28;45411;-70
2022/04/26 16:49:14;;;;;;;;;13.25;13.00;;;;;;;;5050085;28;45531;-69
2022/04/26 16:51:39;;;;;;;;;23.00;19.75;;;;;;;;5049112;28;45423;-70
2022/04/26 16:54:06;;;;;;;;;17.25;16.50;;;;;;;;5039546;28;45883;-69
2022/04/26 16:56:32;;;;;;;;;16.75;16.75;;;;;;;;5052705;28;46388;-70
2022/04/26 16:58:58;;;;;;;;;15.25;15.25;;;;;;;;5046792;28;45470;-69
2022/04/26 17:01:23;;;;;;;;;15.75;15.50;;;;;;;;5041543;28;45396;-68
2022/04/26 17:03:48;;;;;;;;;16.50;15.00;;;;;;;;5038664;28;45284;-69
2022/04/26 17:06:13;;;;;;;;;17.25;17.25;;;;;;;;5052050;28;45379;-69
2022/04/26 17:08:39;;;;;;;;;16.75;16.50;;;;;;;;5038270;28;45368;-68
2022/04/26 17:13:48;;;;;;;;;11.25;11.25;;;;;;;;5041454;28;45478;-68
2022/04/26 17:16:13;;;;;;;;;21.00;20.25;;;;;;;;5041876;28;46041;-69
2022/04/26 17:18:41;;;;;;;;;23.00;20.00;;;;;;;;5051694;28;45418;-69
2022/04/26 17:21:06;;;;;;;;;16.25;15.25;;;;;;;;5036086;28;45491;-69
2022/04/26 17:23:31;;;;;;;;;17.50;15.00;;;;;;;;5039860;28;45268;-69
2022/04/26 17:25:57;;;;;;;;;17.25;16.75;;;;;;;;5048396;28;45858;-70
2022/04/26 17:28:23;;;;;;;;;17.25;16.50;;;;;;;;5045753;28;45397;-69
2022/04/26 17:30:48;;;;;;;;;17.50;17.50;;;;;;;;5040710;28;45495;-69
2022/04/26 17:33:13;;;;;;;;;18.50;18.50;;;;;;;;5037657;28;45401;-68
2022/04/26 17:35:38;;;;;;;;;17.75;17.25;;;;;;;;5051565;28;46026;-69
2022/04/26 17:38:04;;;;;;;;;21.50;16.75;;;;;;;;5040742;28;45434;-71
2022/04/26 17:40:29;;;;;;;;;17.25;17.25;;;;;;;;5045132;28;45492;-69
2022/04/26 17:42:54;;;;;;;;;16.25;13.50;;;;;;;;5050094;28;45429;-69
2022/04/26 17:45:21;;;;;;;;;19.75;16.25;;;;;;;;5037270;28;45395;-69
2022/04/26 17:47:46;;;;;;;;;16.00;16.00;;;;;;;;5051273;28;45315;-69
2022/04/26 17:50:12;;;;;;;;;17.75;15.25;;;;;;;;5040759;28;45284;-69
2022/04/26 17:58:08;;;;;;;;;18.50;17.00;;;;;;;;5009567;28;45376;-70
2022/04/26 18:00:33;;;;;;;;;21.00;18.00;;;;;;;;5010510;28;45484;-70
2022/04/26 18:03:00;;;;;;;;;13.50;13.50;;;;;;;;5011016;28;45515;-70
2022/04/26 18:05:25;;;;;;;;;15.50;15.50;;;;;;;;5011468;28;46266;-70
2022/04/26 18:07:51;;;;;;;;;19.00;19.00;;;;;;;;5009336;28;45794;-70
2022/04/26 18:10:17;;;;;;;;;21.25;20.50;;;;;;;;5009360;28;45476;-71
2022/04/26 18:12:42;;;;;;;;;20.75;20.75;;;;;;;;5009498;28;45657;-70
2022/04/26 18:15:07;;;;;;;;;21.25;18.75;;;;;;;;5009711;28;45435;-70
2022/04/26 18:17:32;;;;;;;;;18.00;16.75;;;;;;;;5008689;28;45479;-71
2022/04/26 18:19:58;;;;;;;;;20.25;17.50;;;;;;;;5009398;28;45575;-70
2022/04/26 18:22:23;;;;;;;;;19.50;17.25;;;;;;;;5009184;28;45410;-70
2022/04/26 18:24:48;;;;;;;;;16.50;16.50;;;;;;;;5009290;28;46239;-69
2022/04/26 18:27:13;;;;;;;;;22.00;20.75;;;;;;;;5009467;28;48412;-70
2022/04/26 18:29:39;;;;;;;;;17.00;15.75;;;;;;;;5012131;28;45303;-69
2022/04/26 18:32:04;;;;;;;;;19.25;18.25;;;;;;;;5023871;28;45796;-70
2022/04/26 18:34:30;;;;;;;;;19.00;15.75;;;;;;;;5044654;28;45416;-70
2022/04/26 18:36:55;;;;;;;;;16.00;14.00;;;;;;;;5039832;28;45628;-69
2022/04/26 18:39:21;;;;;;;;;14.00;14.00;;;;;;;;5051329;28;45322;-69
2022/04/26 18:41:47;;;;;;;;;17.00;15.75;;;;;;;;5037771;28;45475;-69
2022/04/26 18:44:13;;;;;;;;;19.00;17.75;;;;;;;;5049623;28;47372;-70
2022/04/26 18:46:39;;;;;;;;;18.75;14.75;;;;;;;;5042956;28;45378;-69
2022/04/26 18:49:04;;;;;;;;;23.25;20.50;;;;;;;;5040143;28;45361;-70